Time;durP1;ratioP1;P1;durP2;ratioP2;P2;SDS_P1;SDS_P2;PMS_P1;PMS_P2;Temp;Humidity;BMP_temperature;BMP_pressure;BME280_temperature;BME280_humidity;BME280_pressure;Samples;Min_cycle;Max_cycle;Signal;HPM_P1;HPM_P2
2022/09/15 00:11:01;;;;;;;15.13;2.28;;;;;;;24.04;100.00;99714.50;5064712;22;20037;-86
2022/09/15 00:14:54;;;;;;;12.20;2.30;;;;;;;24.22;99.63;99725.91;5040189;28;20044;-86
2022/09/15 00:18:44;;;;;;;14.43;2.55;;;;;;;23.87;95.54;99745.59;5029045;28;20524;-86
2022/09/15 00:25:21;;;;;;;11.82;2.15;;;;;;;23.67;97.00;99724.72;5149935;22;20039;-87
2022/09/15 00:31:00;;;;;;;10.70;2.53;;;;;;;23.62;95.14;99728.25;5053263;23;20034;-84
2022/09/15 00:36:27;;;;;;;7.85;2.33;;;;;;;23.47;94.17;99714.66;5332249;23;20125;-85
2022/09/15 00:39:13;;;;;;;10.98;2.25;;;;;;;23.41;93.80;99720.31;5057112;28;20017;-86
2022/09/15 00:52:15;;;;;;;9.35;2.20;;;;;;;23.26;90.55;99701.31;4991371;28;20118;-87
2022/09/15 00:55:35;;;;;;;11.48;2.97;;;;;;;23.12;91.66;99712.59;4986893;28;20055;-88
2022/09/15 00:58:57;;;;;;;13.23;2.50;;;;;;;23.02;93.92;99711.75;5098326;23;20084;-87
2022/09/15 01:02:23;;;;;;;12.30;2.35;;;;;;;23.01;93.10;99721.72;5031661;28;20098;-87
2022/09/15 01:08:31;;;;;;;14.70;2.78;;;;;;;23.01;93.90;99724.44;4547846;26;20050;-85
2022/09/15 01:14:39;;;;;;;11.38;3.97;;;;;;;22.69;100.00;99712.09;4530430;26;20123;-89
2022/09/15 01:21:24;;;;;;;19.45;5.60;;;;;;;22.38;100.00;99721.81;5267431;23;20050;-86
2022/09/15 01:24:52;;;;;;;19.73;7.63;;;;;;;22.26;100.00;99713.94;5035800;28;20034;-89
2022/09/15 01:28:33;;;;;;;19.85;8.15;;;;;;;22.32;100.00;99712.06;5019902;28;20050;-86
2022/09/15 01:34:58;;;;;;;26.10;13.48;;;;;;;22.15;100.00;99718.41;4979220;28;20054;-88
2022/09/15 01:38:29;;;;;;;30.25;17.08;;;;;;;22.11;100.00;99716.47;5035294;22;20038;-90
2022/09/15 02:08:41;;;;;;;43.42;24.30;;;;;;;22.10;100.00;99633.91;4183578;23;20305;-87
2022/09/15 02:11:31;;;;;;;39.10;25.08;;;;;;;21.99;100.00;99643.81;5038620;28;20036;-85
2022/09/15 02:15:14;;;;;;;37.53;25.35;;;;;;;21.91;100.00;99641.56;5106234;22;20080;-87
2022/09/15 02:21:25;;;;;;;35.78;26.60;;;;;;;21.85;100.00;99628.25;5673585;22;20097;-89
2022/09/15 02:24:23;;;;;;;39.28;27.13;;;;;;;21.86;100.00;99613.72;5034947;28;20046;-89
2022/09/15 02:35:58;;;;;;;41.08;28.95;;;;;;;21.92;100.00;99567.66;3236388;26;20042;-87
2022/09/15 02:50:20;;;;;;;42.60;29.65;;;;;;;21.92;100.00;99534.47;5058297;23;20038;-90
2022/09/15 02:56:37;;;;;;;47.28;29.13;;;;;;;21.90;100.00;99542.00;5092300;22;20053;-87
2022/09/15 03:04:42;;;;;;;43.85;30.58;;;;;;;21.67;100.00;99518.91;5048294;22;20050;-89
2022/09/15 03:13:13;;;;;;;45.13;31.33;;;;;;;21.62;100.00;99530.44;5094124;23;20105;-91
2022/09/15 03:17:14;;;;;;;45.45;31.77;;;;;;;21.67;100.00;99531.56;5422077;22;20031;-87
2022/09/15 03:24:05;;;;;;;52.15;34.53;;;;;;;21.26;100.00;99541.19;5039167;28;20068;-86
2022/09/15 03:27:19;;;;;;;49.45;34.47;;;;;;;21.32;100.00;99542.84;5036276;28;20073;-87
2022/09/15 03:33:13;;;;;;;48.08;34.88;;;;;;;21.27;100.00;99548.22;5151000;22;20045;-89
2022/09/15 03:36:44;;;;;;;49.22;35.33;;;;;;;21.24;100.00;99546.84;5040896;28;20110;-88
2022/09/15 03:45:25;;;;;;;48.38;34.78;;;;;;;21.20;100.00;99543.03;5512641;23;20038;-88
2022/09/15 03:48:24;;;;;;;55.35;35.75;;;;;;;21.09;100.00;99552.88;5038279;28;20050;-88
2022/09/15 03:51:34;;;;;;;53.85;34.88;;;;;;;21.25;100.00;99561.91;5039792;28;20121;-89
2022/09/15 04:16:16;;;;;;;44.25;30.90;;;;;;;21.29;100.00;99546.06;2964591;23;20052;-87
2022/09/15 04:39:35;;;;;;;49.97;29.20;;;;;;;21.36;100.00;99570.94;5356231;22;20053;-88
2022/09/15 04:42:44;;;;;;;40.08;28.38;;;;;;;21.24;100.00;99567.59;5038328;28;20038;-88
2022/09/15 04:52:49;;;;;;;42.60;28.08;;;;;;;20.99;100.00;99590.47;5103868;23;20096;-85
2022/09/15 04:55:59;;;;;;;41.50;28.02;;;;;;;20.92;100.00;99584.44;5035189;28;20060;-84
2022/09/15 05:03:23;;;;;;;40.83;26.15;;;;;;;20.88;100.00;99596.78;5038537;28;20063;-90
2022/09/15 05:06:54;;;;;;;37.33;26.15;;;;;;;20.87;100.00;99607.81;5021904;28;20041;-89
2022/09/15 05:12:27;;;;;;;38.58;23.85;;;;;;;20.97;100.00;99586.41;5034641;28;20110;-83
2022/09/15 05:20:59;;;;;;;34.40;21.48;;;;;;;20.90;100.00;99604.63;4875433;26;20050;-88
2022/09/15 05:24:21;;;;;;;39.75;18.92;;;;;;;20.94;100.00;99609.28;5026799;28;20037;-87
2022/09/15 05:27:30;;;;;;;33.30;17.45;;;;;;;21.14;100.00;99608.72;4971826;28;20117;-88
2022/09/15 05:40:02;;;;;;;;;;;;;;;21.18;100.00;99625.19;5012530;28;20054;-89
2022/09/15 05:43:07;;;;;;;36.95;18.55;;;;;;;21.12;100.00;99627.81;5011140;28;19906;-89
2022/09/15 07:20:24;;;;;;;39.10;18.00;;;;;;;25.22;100.00;99654.44;5445916;22;20045;-89
2022/09/15 07:22:51;;;;;;;;;;;;;;;25.03;100.00;99662.38;5034917;28;20048;-91
2022/09/15 07:25:24;;;;;;;34.55;18.48;;;;;;;25.00;100.00;99665.63;5043172;28;19961;-92
2022/09/15 07:30:59;;;;;;;33.05;17.90;;;;;;;25.39;100.00;99664.94;5069588;23;20050;-91
2022/09/15 07:33:31;;;;;;;29.20;17.85;;;;;;;25.76;100.00;99659.81;5032157;28;20037;-89
2022/09/15 07:36:38;;;;;;;35.35;18.70;;;;;;;25.70;96.62;99652.81;5036370;28;20086;-90
2022/09/15 07:39:29;;;;;;;32.45;19.30;;;;;;;25.10;100.00;99662.88;5022224;28;20041;-88
2022/09/15 07:42:15;;;;;;;25.45;16.80;;;;;;;25.50;100.00;99650.22;5034619;28;20037;-90
2022/09/15 07:45:11;;;;;;;33.22;17.52;;;;;;;25.93;94.67;99652.09;5020878;28;20030;-91
2022/09/15 07:48:11;;;;;;;35.70;17.10;;;;;;;26.43;88.80;99659.00;5037159;28;20045;-92
2022/09/15 07:51:07;;;;;;;25.50;16.17;;;;;;;26.50;89.36;99664.09;5038059;28;20065;-91
2022/09/15 07:54:14;;;;;;;31.55;16.98;;;;;;;26.63;87.48;99668.88;5036688;28;20072;-93
2022/09/15 07:57:56;;;;;;;27.60;17.00;;;;;;;26.84;88.10;99664.88;5031889;28;20073;-90
2022/09/15 08:00:46;;;;;;;28.08;17.60;;;;;;;26.92;89.18;99663.41;5167332;22;20024;-92
2022/09/15 08:03:54;;;;;;;30.00;16.98;;;;;;;27.70;81.46;99666.47;5012721;28;20055;-91
2022/09/15 08:06:40;;;;;;;30.50;15.45;;;;;;;27.75;82.81;99666.38;5013932;28;20049;-89
2022/09/15 08:09:40;;;;;;;28.55;16.02;;;;;;;27.61;82.61;99668.22;5032160;28;20539;-91
2022/09/15 08:12:15;;;;;;;30.90;15.80;;;;;;;27.84;82.08;99653.69;5034602;28;20389;-92
2022/09/15 08:15:36;;;;;;;28.73;14.40;;;;;;;28.29;78.46;99675.88;5033795;28;20072;-94
2022/09/15 08:24:42;;;;;;;24.95;13.20;;;;;;;29.23;70.15;99661.50;5440937;23;20026;-92
2022/09/15 08:35:47;;;;;;;27.42;12.85;;;;;;;29.35;70.28;99671.94;5153104;22;20057;-90
2022/09/15 08:39:27;;;;;;;31.05;13.50;;;;;;;29.77;69.20;99671.53;5095790;23;20093;-91
2022/09/15 08:45:19;;;;;;;33.33;12.15;;;;;;;30.76;64.80;99664.94;4652398;26;20046;-90
2022/09/15 08:54:28;;;;;;;31.35;17.27;;;;;;;29.61;70.13;99661.25;1383009;26;20061;-91
2022/09/15 09:14:54;;;;;;;;;;;;;;;30.54;67.02;99635.72;4623191;23;20385;-89
2022/09/15 09:21:48;;;;;;;23.80;15.18;;;;;;;30.70;65.66;99644.31;5216496;23;20061;-90
2022/09/15 09:39:28;;;;;;;29.17;13.57;;;;;;;31.85;60.27;99631.03;4769189;26;20049;-91
2022/09/15 09:42:35;;;;;;;17.67;11.45;;;;;;;32.65;57.73;99615.66;5035972;28;20046;-90
2022/09/15 09:45:48;;;;;;;17.75;10.20;;;;;;;33.00;55.97;99614.34;4996257;28;20086;-90
2022/09/15 10:01:16;;;;;;;18.65;8.50;;;;;;;32.45;56.74;99594.44;6072923;22;19900;-91
2022/09/15 10:04:33;;;;;;;22.10;8.95;;;;;;;32.02;57.56;99605.50;5015469;28;20069;-91
2022/09/15 10:08:10;;;;;;;19.98;8.05;;;;;;;31.32;59.80;99594.91;5036526;28;20038;-93
2022/09/15 10:36:40;;;;;;;19.70;4.80;;;;;;;33.53;50.51;99531.25;4973907;26;20042;-87
2022/09/15 10:40:03;;;;;;;21.58;5.20;;;;;;;32.95;52.25;99525.88;5040547;23;20136;-84
2022/09/15 10:43:10;;;;;;;21.45;5.20;;;;;;;33.49;50.77;99513.81;5040305;28;20076;-82
2022/09/15 10:45:48;;;;;;;16.65;4.90;;;;;;;34.85;48.21;99515.25;4972528;28;20047;-87
2022/09/15 11:11:12;;;;;;;18.60;4.50;;;;;;;35.31;41.31;99521.34;5164412;23;20058;-87
2022/09/15 11:14:36;;;;;;;18.70;3.90;;;;;;;36.38;39.45;99523.03;4994214;28;20047;-89
2022/09/15 11:20:47;;;;;;;11.18;3.63;;;;;;;35.69;39.74;99525.22;4973450;29;20147;-86
2022/09/15 11:23:52;;;;;;;19.52;4.28;;;;;;;35.66;40.51;99516.84;5018803;28;20041;-84
2022/09/15 11:38:47;;;;;;;;;;;;;;;;;;;;;
2022/09/15 11:47:33;;;;;;;;;;;;;;;31.19;56.52;99474.25;3050327;26;20316;-89
2022/09/15 11:50:26;;;;;;;17.63;5.18;;;;;;;31.15;57.86;99470.56;5017889;28;19932;-88
2022/09/15 11:53:23;;;;;;;17.15;6.07;;;;;;;30.95;57.40;99484.88;5023459;23;20057;-86
2022/09/15 11:56:30;;;;;;;16.33;6.03;;;;;;;31.01;57.50;99486.34;5027744;28;20066;-84
2022/09/15 11:59:25;;;;;;;;;;;;;;;30.72;58.73;99486.94;5028935;28;20037;-87
2022/09/15 12:02:28;;;;;;;20.23;6.22;;;;;;;30.42;60.91;99487.06;5024632;28;19917;-83
2022/09/15 12:05:16;;;;;;;18.40;6.80;;;;;;;30.50;60.84;99491.72;5030975;28;20045;-85
2022/09/15 12:08:44;;;;;;;19.42;6.25;;;;;;;30.24;61.41;99481.50;5038980;28;20044;-88
2022/09/15 12:12:11;;;;;;;22.67;5.25;;;;;;;30.20;61.64;99476.97;5021889;28;20037;-89
2022/09/15 12:14:57;;;;;;;15.75;5.57;;;;;;;30.59;59.14;99479.66;5018549;28;20027;-83
2022/09/15 12:17:53;;;;;;;19.27;5.70;;;;;;;30.07;61.11;99478.69;5020318;28;20517;-84
2022/09/15 12:20:47;;;;;;;14.95;5.20;;;;;;;29.74;62.81;99459.09;5025195;28;20041;-85
2022/09/15 12:23:54;;;;;;;17.02;5.50;;;;;;;29.61;64.29;99467.34;5033260;28;20045;-88
2022/09/15 12:26:28;;;;;;;20.92;5.05;;;;;;;29.58;65.63;99462.53;5021775;28;20049;-86
2022/09/15 12:29:17;;;;;;;19.98;4.97;;;;;;;29.07;67.31;99471.94;5016236;28;20065;-88
2022/09/15 12:35:23;;;;;;;17.70;3.35;;;;;;;28.36;68.75;99466.44;5033094;28;20050;-87
2022/09/15 12:41:25;;;;;;;18.10;3.08;;;;;;;28.18;72.18;99449.91;5058299;23;20046;-85
2022/09/15 12:44:23;;;;;;;16.23;3.50;;;;;;;27.94;72.30;99438.34;5072717;22;20130;-90
2022/09/15 12:47:28;;;;;;;13.45;3.10;;;;;;;28.01;72.91;99437.94;5040622;28;20038;-86
2022/09/15 12:50:03;;;;;;;17.55;3.20;;;;;;;27.75;74.18;99443.09;5014080;28;20050;-85
2022/09/15 12:52:58;;;;;;;16.95;3.85;;;;;;;27.69;75.20;99450.56;5020471;28;20037;-83
2022/09/15 12:55:57;;;;;;;16.00;3.22;;;;;;;27.61;75.64;99450.44;5010708;28;20034;-84
2022/09/15 12:58:51;;;;;;;16.95;2.95;;;;;;;27.71;75.07;99450.25;5001933;28;20050;-86
2022/09/15 13:01:35;;;;;;;19.13;3.70;;;;;;;27.40;78.19;99443.72;5018748;28;20046;-88
2022/09/15 13:04:44;;;;;;;23.33;3.55;;;;;;;27.37;78.09;99449.75;5020693;28;20044;-88
2022/09/15 13:07:17;;;;;;;20.20;3.00;;;;;;;27.48;75.84;99445.75;5027305;28;20074;-82
2022/09/15 13:10:06;;;;;;;23.25;2.67;;;;;;;27.72;74.67;99441.78;5045232;28;20037;-84
2022/09/15 13:12:36;;;;;;;18.38;3.42;;;;;;;27.82;72.48;99434.53;5029633;28;20050;-86
2022/09/15 13:15:12;;;;;;;15.93;2.67;;;;;;;27.85;68.22;99428.47;5018689;28;20046;-87
2022/09/15 13:17:44;;;;;;;15.88;2.65;;;;;;;27.89;66.34;99426.75;5017507;28;20022;-85
2022/09/15 13:20:22;;;;;;;21.95;3.38;;;;;;;28.04;67.15;99427.25;5023383;28;20086;-85
2022/09/15 13:23:02;;;;;;;16.10;2.70;;;;;;;28.23;65.09;99433.47;5025174;28;20070;-85
2022/09/15 13:26:17;;;;;;;18.50;2.90;;;;;;;28.23;64.92;99425.28;5013986;28;20046;-86
2022/09/15 13:29:03;;;;;;;23.83;3.97;;;;;;;28.10;66.91;99415.22;5006185;28;20054;-86
2022/09/15 13:31:52;;;;;;;22.08;2.83;;;;;;;28.10;66.65;99420.66;5040535;28;20084;-87
2022/09/15 13:34:45;;;;;;;18.48;3.40;;;;;;;27.98;65.57;99417.59;5011792;28;20051;-83
2022/09/15 13:37:51;;;;;;;17.10;3.15;;;;;;;28.10;64.84;99409.75;5012574;28;20030;-83
2022/09/15 13:40:45;;;;;;;18.08;3.00;;;;;;;28.04;64.36;99405.47;5025614;28;20038;-88
2022/09/15 13:43:56;;;;;;;18.20;2.40;;;;;;;28.12;65.07;99402.06;5018474;28;20549;-85
2022/09/15 13:52:57;;;;;;;15.15;2.90;;;;;;;27.89;65.74;99413.97;5028972;28;20069;-86
2022/09/15 13:55:31;;;;;;;13.70;2.22;;;;;;;27.71;64.73;99401.22;5020733;28;20034;-84
2022/09/15 13:58:38;;;;;;;18.23;2.55;;;;;;;27.65;65.88;99416.06;5014070;28;20034;-86
2022/09/15 14:01:21;;;;;;;11.60;2.17;;;;;;;27.73;64.98;99427.06;5008028;28;20046;-87
2022/09/15 14:04:05;;;;;;;16.30;2.60;;;;;;;27.57;65.84;99427.66;5010811;28;20046;-86
2022/09/15 14:06:43;;;;;;;12.90;2.38;;;;;;;27.45;66.61;99422.69;5038202;23;20065;-87
2022/09/15 14:09:22;;;;;;;30.27;4.03;;;;;;;27.22;75.23;99427.13;5011915;28;20026;-86
2022/09/15 14:12:11;;;;;;;26.80;4.00;;;;;;;27.00;76.70;99397.03;5009958;28;20061;-91
2022/09/15 14:14:58;;;;;;;22.75;3.15;;;;;;;26.92;85.61;99407.78;5011032;28;20050;-87
2022/09/15 14:17:44;;;;;;;19.95;2.67;;;;;;;26.38;99.15;99428.13;5012569;28;20042;-88
2022/09/15 14:20:46;;;;;;;19.38;2.78;;;;;;;26.05;95.07;99434.50;5014175;28;20026;-85
2022/09/15 14:24:07;;;;;;;20.33;3.75;;;;;;;25.30;100.00;99412.44;5016420;28;20086;-86
2022/09/15 14:27:09;;;;;;;18.63;3.10;;;;;;;24.95;100.00;99393.75;5009825;28;20142;-85
2022/09/15 14:30:25;;;;;;;16.77;2.75;;;;;;;24.72;100.00;99405.28;5015554;28;20033;-88
2022/09/15 14:33:01;;;;;;;25.17;3.83;;;;;;;24.39;100.00;99423.09;5011839;28;20066;-86
2022/09/15 14:36:21;;;;;;;24.17;3.47;;;;;;;24.39;100.00;99426.63;5118800;23;20041;-86
2022/09/15 14:39:24;;;;;;;24.50;3.80;;;;;;;23.93;100.00;99420.53;5012605;28;20034;-87
2022/09/15 14:41:50;;;;;;;23.80;3.92;;;;;;;23.16;100.00;99383.91;5034839;28;20054;-85
2022/09/15 14:44:42;;;;;;;15.70;3.25;;;;;;;23.17;100.00;99368.47;5035380;28;20050;-88
2022/09/15 14:47:42;;;;;;;15.73;2.90;;;;;;;23.16;100.00;99367.69;5035087;28;20046;-84
2022/09/15 14:51:16;;;;;;;17.48;3.33;;;;;;;23.45;100.00;99364.41;5236872;22;20050;-85
2022/09/15 14:54:03;;;;;;;20.10;3.05;;;;;;;23.37;100.00;99356.81;5037475;28;20057;-87
2022/09/15 15:00:04;;;;;;;23.27;3.08;;;;;;;23.90;100.00;99339.91;5115066;23;20445;-86
2022/09/15 15:03:10;;;;;;;19.30;2.50;;;;;;;24.19;100.00;99338.16;5039464;28;20050;-87
2022/09/15 15:06:14;;;;;;;12.82;2.22;;;;;;;24.22;100.00;99325.16;5039594;28;20062;-88
2022/09/15 15:09:14;;;;;;;10.75;2.25;;;;;;;24.49;100.00;99325.53;5039980;28;20137;-87
2022/09/15 15:12:49;;;;;;;15.37;1.93;;;;;;;24.61;100.00;99328.69;5039360;28;20041;-88
2022/09/15 15:23:58;;;;;;;15.15;2.08;;;;;;;25.65;100.00;99327.97;5747112;23;20030;-87
2022/09/15 15:27:09;;;;;;;6.13;1.85;;;;;;;25.76;100.00;99336.81;5020259;28;20057;-88
2022/09/15 15:30:40;;;;;;;12.93;1.98;;;;;;;25.91;100.00;99325.78;5019274;28;20040;-85
2022/09/15 15:34:12;;;;;;;13.45;2.05;;;;;;;26.03;100.00;99334.28;4949715;28;20047;-85
2022/09/15 15:40:06;;;;;;;7.72;1.92;;;;;;;26.07;100.00;99329.91;4998404;23;20058;-85
2022/09/15 15:42:34;;;;;;;;;;;;;;;26.17;100.00;99318.91;5036884;28;20046;-86
2022/09/15 15:45:21;;;;;;;9.30;2.40;;;;;;;26.27;100.00;99322.59;5039367;28;19906;-84
2022/09/15 15:47:48;;;;;;;10.50;2.08;;;;;;;26.32;100.00;99317.06;5034441;28;20030;-87
2022/09/15 15:50:22;;;;;;;14.00;2.08;;;;;;;26.42;100.00;99325.06;5038865;28;20038;-84
2022/09/15 15:53:31;;;;;;;9.07;2.40;;;;;;;26.47;100.00;99314.13;5038615;28;20042;-89
2022/09/15 15:56:27;;;;;;;8.75;1.83;;;;;;;26.58;100.00;99312.88;5024891;28;20053;-85
2022/09/15 15:58:55;;;;;;;9.23;2.10;;;;;;;26.59;98.13;99306.31;5036998;28;20053;-85
2022/09/15 16:01:23;;;;;;;12.63;2.33;;;;;;;26.51;100.00;99302.38;5038815;28;20034;-86
2022/09/15 16:04:14;;;;;;;9.05;1.70;;;;;;;26.65;98.57;99302.41;5026793;28;20034;-83
2022/09/15 16:06:49;;;;;;;7.60;1.85;;;;;;;26.73;95.63;99305.28;5023035;28;20077;-84
2022/09/15 16:09:21;;;;;;;13.63;2.33;;;;;;;26.70;98.40;99294.19;5034792;28;20089;-86
2022/09/15 16:12:00;;;;;;;13.00;2.40;;;;;;;26.70;100.00;99291.47;5020149;28;20041;-86
2022/09/15 16:15:07;;;;;;;12.13;2.35;;;;;;;26.72;99.35;99297.41;5033959;28;20032;-87
2022/09/15 16:18:17;;;;;;;;;;;;;;;26.56;98.04;99287.88;5035665;28;20022;-85
2022/09/15 16:26:34;;;;;;;9.45;2.08;;;;;;;26.41;94.19;99293.59;4961702;26;20026;-87
2022/09/15 16:29:36;;;;;;;6.97;1.77;;;;;;;26.46;94.49;99285.34;5038038;28;20061;-89
2022/09/15 16:32:18;;;;;;;14.98;2.60;;;;;;;26.45;92.17;99291.91;5038403;28;20037;-87
2022/09/15 16:35:50;;;;;;;12.27;2.67;;;;;;;26.23;89.22;99280.81;5034145;23;20049;-93
2022/09/15 16:38:19;;;;;;;9.98;1.90;;;;;;;26.29;90.73;99287.78;5009842;28;20054;-91
2022/09/15 16:40:46;;;;;;;10.20;1.90;;;;;;;26.29;91.72;99283.16;5004551;28;20030;-92
2022/09/15 16:43:14;;;;;;;11.15;1.85;;;;;;;26.26;93.88;99274.78;5022660;28;20034;-91
2022/09/15 16:45:39;;;;;;;10.40;2.15;;;;;;;26.29;93.98;99279.63;5001754;28;20042;-90
2022/09/15 16:48:09;;;;;;;8.57;1.70;;;;;;;26.18;92.98;99285.22;5012366;28;20025;-92
2022/09/15 16:50:35;;;;;;;11.57;2.40;;;;;;;26.31;91.81;99280.97;5013750;28;20124;-90
2022/09/15 16:53:04;;;;;;;13.68;1.90;;;;;;;26.25;91.51;99275.91;5020756;28;20215;-89
2022/09/15 16:55:59;;;;;;;14.57;1.90;;;;;;;26.24;91.09;99279.72;5021557;28;20526;-89
2022/09/15 16:58:25;;;;;;;12.50;2.33;;;;;;;26.17;91.75;99278.19;4946279;28;20121;-90
2022/09/15 17:00:51;;;;;;;9.85;2.00;;;;;;;26.29;90.92;99271.47;4978232;28;20106;-91
2022/09/15 17:03:19;;;;;;;12.90;2.35;;;;;;;26.24;89.28;99269.66;4975634;28;20410;-93
2022/09/15 17:05:48;;;;;;;15.05;2.40;;;;;;;26.17;89.81;99269.22;4937838;28;20035;-92
2022/09/15 17:08:16;;;;;;;7.00;2.05;;;;;;;26.18;89.57;99276.28;4979601;28;20084;-90
2022/09/15 17:10:41;;;;;;;15.38;2.50;;;;;;;26.19;89.99;99275.97;5011180;28;20092;-90
2022/09/15 17:13:10;;;;;;;15.77;2.60;;;;;;;26.15;88.72;99272.19;5018223;28;20033;-90
2022/09/15 17:15:39;;;;;;;18.17;2.38;;;;;;;26.16;87.18;99268.41;5024992;28;20030;-90
2022/09/15 17:18:12;;;;;;;9.80;1.95;;;;;;;26.05;87.69;99275.06;5037956;28;20029;-88
2022/09/15 17:20:44;;;;;;;15.50;2.70;;;;;;;26.05;84.51;99268.84;5038852;28;20045;-90
2022/09/15 17:23:16;;;;;;;14.38;2.17;;;;;;;25.93;85.78;99266.53;5307052;23;20096;-88
2022/09/15 17:25:47;;;;;;;10.85;2.10;;;;;;;25.91;86.44;99271.47;4998431;28;20062;-90
2022/09/15 17:28:14;;;;;;;12.60;1.98;;;;;;;25.89;84.24;99273.66;4997664;28;20437;-87
2022/09/15 17:30:40;;;;;;;9.55;1.90;;;;;;;25.96;82.46;99263.25;4996432;28;20050;-88
2022/09/15 17:33:13;;;;;;;12.07;1.85;;;;;;;25.95;83.56;99266.25;4996968;28;20037;-89
2022/09/15 17:35:39;;;;;;;14.05;2.33;;;;;;;26.00;83.29;99269.72;4992828;28;20038;-85
2022/09/15 17:38:06;;;;;;;9.95;1.60;;;;;;;26.00;83.28;99266.19;4985433;28;20544;-88
2022/09/15 17:40:33;;;;;;;10.77;2.00;;;;;;;26.03;84.19;99274.53;4960853;28;20034;-85
2022/09/15 17:42:59;;;;;;;11.82;2.47;;;;;;;25.78;86.86;99283.06;4962136;28;20130;-86
2022/09/15 17:45:38;;;;;;;10.57;2.53;;;;;;;25.73;87.03;99277.69;4989630;28;20054;-86
2022/09/15 17:48:17;;;;;;;11.50;3.53;;;;;;;25.63;88.35;99275.09;4995472;28;20074;-84
2022/09/15 17:51:00;;;;;;;19.63;3.17;;;;;;;25.47;89.73;99277.16;4964146;28;20054;-87
2022/09/15 17:54:14;;;;;;;15.52;2.80;;;;;;;25.44;90.36;99285.06;4982687;28;20039;-86
2022/09/15 17:57:14;;;;;;;10.60;2.03;;;;;;;25.30;90.38;99286.84;4976535;28;20039;-83
2022/09/15 18:00:39;;;;;;;11.93;1.88;;;;;;;25.24;86.92;99288.00;4970851;28;20061;-88
2022/09/15 18:03:27;;;;;;;10.70;2.38;;;;;;;25.27;83.59;99282.00;4993652;28;20035;-85
2022/09/15 18:06:08;;;;;;;12.63;2.25;;;;;;;25.30;83.09;99298.50;4958106;28;20078;-84
2022/09/15 18:08:50;;;;;;;9.45;1.95;;;;;;;25.23;83.04;99292.63;4950382;28;20043;-82
2022/09/15 18:11:46;;;;;;;11.82;2.58;;;;;;;25.26;83.14;99291.22;4993623;28;20042;-86
2022/09/15 18:14:52;;;;;;;14.88;2.17;;;;;;;25.19;83.81;99286.97;4997053;28;20035;-86
2022/09/15 18:20:31;;;;;;;9.87;2.03;;;;;;;25.22;83.75;99306.47;5136445;23;20061;-84
2022/09/15 18:23:02;;;;;;;13.48;2.40;;;;;;;25.23;84.06;99302.66;5031027;28;20081;-82
2022/09/15 18:25:43;;;;;;;9.90;2.83;;;;;;;25.25;84.00;99305.91;5038099;28;20066;-82
2022/09/15 18:28:50;;;;;;;12.88;2.45;;;;;;;25.14;86.08;99316.03;5033028;28;20045;-84
2022/09/15 18:31:19;;;;;;;8.57;2.70;;;;;;;25.09;87.38;99308.75;5036221;28;20045;-84
2022/09/15 18:33:52;;;;;;;12.18;2.55;;;;;;;24.88;87.15;99312.78;5015341;28;20101;-86
2022/09/15 18:36:54;;;;;;;12.13;2.33;;;;;;;24.85;88.98;99307.09;5018861;28;20039;-84
2022/09/15 18:39:43;;;;;;;13.93;2.40;;;;;;;24.85;88.45;99323.38;5028421;28;20058;-88
2022/09/15 18:42:30;;;;;;;10.07;2.15;;;;;;;24.73;88.48;99309.34;5039688;28;20045;-89
2022/09/15 18:51:03;;;;;;;6.45;2.13;;;;;;;24.43;88.39;99326.63;5024253;28;20050;-84
2022/09/15 18:54:00;;;;;;;14.10;2.22;;;;;;;24.41;89.51;99329.63;5011533;28;20137;-86
2022/09/15 18:56:36;;;;;;;10.98;2.78;;;;;;;24.34;90.54;99322.91;5011994;28;20061;-83
2022/09/15 18:59:35;;;;;;;23.83;2.60;;;;;;;24.32;90.53;99327.81;5005764;28;20054;-85
2022/09/15 19:02:30;;;;;;;13.13;2.00;;;;;;;24.34;91.22;99326.44;5020179;28;20105;-85
2022/09/15 19:05:15;;;;;;;8.15;2.33;;;;;;;24.30;91.71;99338.09;5018385;28;20093;-86
2022/09/15 19:08:34;;;;;;;10.48;2.22;;;;;;;24.25;92.77;99336.25;5012064;28;20102;-90
2022/09/15 19:36:16;;;;;;;11.00;2.13;;;;;;;24.64;89.32;99342.47;2261010;26;20050;-84
2022/09/15 19:39:11;;;;;;;11.63;3.13;;;;;;;24.72;88.12;99341.06;5013450;28;20046;-84
2022/09/15 19:41:41;;;;;;;7.10;1.80;;;;;;;24.65;89.20;99338.69;5014611;28;20022;-87
2022/09/15 19:44:14;;;;;;;12.70;2.38;;;;;;;24.64;89.40;99339.75;5015476;28;20074;-89
2022/09/15 19:46:40;;;;;;;14.75;2.30;;;;;;;24.61;88.84;99334.09;5015601;28;20054;-84
2022/09/15 19:49:26;;;;;;;10.05;2.20;;;;;;;24.56;88.61;99343.06;5016109;28;20034;-85
2022/09/15 19:51:54;;;;;;;;;;;;;;;24.62;88.42;99333.00;5014843;28;20035;-88
2022/09/15 19:54:34;;;;;;;12.90;2.80;;;;;;;24.50;89.25;99337.97;5014964;28;19905;-88
2022/09/15 19:57:30;;;;;;;15.38;3.63;;;;;;;24.56;88.98;99331.44;5334702;22;20069;-88
2022/09/15 20:18:53;;;;;;;8.20;1.65;;;;;;;24.41;89.19;99339.66;5135671;22;20277;-87
2022/09/15 20:49:16;;;;;;;15.93;6.75;;;;;;;24.46;86.27;99345.84;5310445;22;20063;-88
2022/09/15 20:51:45;;;;;;;12.25;3.45;;;;;;;24.55;85.61;99355.00;5033743;28;20064;-91
2022/09/15 20:54:16;;;;;;;8.75;2.15;;;;;;;24.55;84.98;99365.03;5035948;28;20030;-90
2022/09/15 20:59:24;;;;;;;6.07;1.85;;;;;;;24.62;83.80;99349.28;5143580;22;20052;-90
2022/09/15 21:02:25;;;;;;;8.70;1.98;;;;;;;24.64;83.78;99357.91;2473418;23;20117;-90
2022/09/15 21:04:52;;;;;;;12.38;3.20;;;;;;;24.61;82.95;99350.34;5016533;28;20077;-89
2022/09/15 21:07:46;;;;;;;7.80;1.48;;;;;;;24.62;82.70;99358.22;5035396;28;20040;-89
2022/09/15 21:10:23;;;;;;;6.82;1.52;;;;;;;24.67;81.67;99357.34;5033604;28;20044;-88
2022/09/15 21:15:31;;;;;;;7.90;1.98;;;;;;;24.78;81.16;99361.59;3234759;26;20073;-88
2022/09/15 21:18:52;;;;;;;8.40;2.00;;;;;;;24.72;80.47;99361.94;5183600;22;20436;-91
2022/09/15 21:21:33;;;;;;;9.20;1.77;;;;;;;24.79;79.84;99363.22;5076979;22;20045;-86
2022/09/15 21:25:21;;;;;;;6.60;1.77;;;;;;;24.77;79.52;99359.97;5004170;28;20038;-89
2022/09/15 21:39:11;;;;;;;7.93;2.35;;;;;;;24.85;78.51;99366.75;5156234;23;20501;-91
2022/09/15 21:45:19;;;;;;;6.32;1.75;;;;;;;24.87;78.55;99373.50;5470886;22;21122;-91
2022/09/15 21:48:06;;;;;;;10.43;1.77;;;;;;;24.76;79.71;99374.63;4997889;28;20054;-88
2022/09/15 21:56:02;;;;;;;10.60;1.80;;;;;;;24.59;82.02;99376.94;5011089;28;20050;-90
2022/09/15 21:58:33;;;;;;;9.38;2.22;;;;;;;24.65;81.66;99381.22;5011221;28;20039;-90
2022/09/15 22:01:20;;;;;;;8.25;1.65;;;;;;;24.57;82.04;99382.63;5009261;28;20073;-91
2022/09/15 22:03:51;;;;;;;9.32;2.38;;;;;;;24.65;82.02;99382.03;5011873;28;20053;-88
2022/09/15 22:06:26;;;;;;;7.80;1.67;;;;;;;24.65;81.83;99378.50;5009056;28;20038;-91
2022/09/15 22:20:34;;;;;;;6.97;1.58;;;;;;;24.51;83.49;99382.94;5807400;22;20020;-88
2022/09/15 23:11:57;;;;;;;7.82;2.00;;;;;;;23.82;91.05;99372.16;5056327;23;20037;-90
2022/09/15 23:17:53;;;;;;;7.95;1.83;;;;;;;23.55;92.02;99375.22;5800589;22;20012;-90
2022/09/15 23:28:14;;;;;;;5.68;1.50;;;;;;;23.82;85.71;99385.69;4270688;23;20050;-90
2022/09/15 23:30:49;;;;;;;8.82;1.60;;;;;;;23.70;86.77;99377.84;5039140;28;20053;-92
2022/09/15 23:34:00;;;;;;;9.85;2.13;;;;;;;23.54;90.26;99379.00;5018704;28;20049;-91
